createdAt,value
2018-07-19T00:00:48.165Z,99.99
2018-07-19T00:01:48.145Z,99.99
2018-07-19T00:02:48.158Z,99.99
2018-07-19T00:03:48.444Z,99.99
2018-07-19T00:04:48.105Z,99.99
2018-07-19T00:05:48.085Z,99.52
2018-07-19T00:06:48.072Z,99.91
2018-07-19T00:07:48.057Z,99.62
2018-07-19T00:08:48.042Z,99.33
2018-07-19T00:09:48.055Z,98.76
2018-07-19T00:10:48.389Z,99.05
2018-07-19T00:11:48.025Z,99.24
2018-07-19T00:12:48.010Z,98.76
2018-07-19T00:13:48.004Z,98.76
2018-07-19T00:14:47.951Z,98.57
2018-07-19T00:15:47.936Z,98.57
2018-07-19T00:16:47.930Z,98.19
2018-07-19T00:17:48.206Z,97.71
2018-07-19T00:18:47.927Z,97.61
2018-07-19T00:19:47.877Z,98.09
2018-07-19T00:20:47.864Z,97.90
2018-07-19T00:21:47.847Z,96.94
2018-07-19T00:22:47.831Z,97.90
2018-07-19T00:23:47.816Z,97.28
2018-07-19T00:24:48.102Z,97.33
2018-07-19T00:25:47.816Z,96.89
2018-07-19T00:26:47.799Z,96.70
2018-07-19T00:27:47.757Z,96.70
2018-07-19T00:28:47.740Z,96.61
2018-07-19T00:29:47.725Z,96.80
2018-07-19T00:30:48.137Z,96.89
2018-07-19T00:31:47.767Z,96.13
2018-07-19T00:32:47.758Z,96.42
2018-07-19T00:33:47.772Z,95.94
2018-07-19T00:34:47.773Z,95.75
2018-07-19T00:35:47.706Z,95.84
2018-07-19T00:36:47.919Z,95.84
2018-07-19T00:37:47.603Z,95.65
2018-07-19T00:38:47.588Z,95.84
2018-07-19T00:39:47.573Z,96.51
2018-07-19T00:40:47.557Z,95.46
2018-07-19T00:41:47.542Z,95.07
2018-07-19T00:42:47.779Z,95.84
2018-07-19T00:43:47.511Z,94.98
2018-07-19T00:44:47.501Z,95.27
2018-07-19T00:45:47.480Z,95.07
2018-07-19T00:46:47.464Z,95.36
2018-07-19T00:47:47.449Z,95.27
2018-07-19T00:48:47.736Z,94.89
2018-07-19T00:49:47.418Z,95.17
2018-07-19T00:50:47.402Z,94.60
2018-07-19T00:51:47.390Z,94.60
2018-07-19T00:52:47.373Z,93.74
2018-07-19T00:53:47.358Z,94.50
2018-07-19T00:54:47.644Z,94.70
2018-07-19T00:55:47.326Z,94.60
2018-07-19T00:56:47.312Z,94.98
2018-07-19T00:57:47.295Z,94.79
2018-07-19T00:58:47.415Z,94.50
2018-07-19T01:00:47.550Z,94.02
2018-07-19T01:01:47.237Z,94.50
2018-07-19T01:02:47.218Z,94.79
2018-07-19T01:03:47.203Z,94.21
2018-07-19T01:04:47.188Z,93.64
2018-07-19T01:05:47.172Z,94.12
2018-07-19T01:06:47.457Z,93.88
2018-07-19T01:10:47.487Z,93.35
2018-07-19T01:11:47.436Z,93.79
2018-07-19T01:12:47.408Z,93.69
2018-07-19T01:13:48.084Z,93.69
2018-07-19T01:14:47.324Z,93.21
2018-07-19T01:15:47.311Z,93.12
2018-07-19T01:16:53.605Z,93.21
2018-07-19T01:17:47.274Z,93.12
2018-07-19T01:18:47.161Z,92.64
2018-07-19T01:19:47.241Z,92.54
2018-07-19T01:20:47.549Z,91.97
2018-07-19T01:21:47.182Z,91.78
2018-07-19T01:22:47.158Z,91.30
2018-07-19T01:23:47.080Z,92.25
2018-07-19T01:24:47.072Z,92.07
2018-07-19T01:25:47.047Z,92.16
2018-07-19T01:26:47.042Z,92.74
2018-07-19T01:27:47.430Z,92.07
2018-07-19T01:28:47.063Z,92.25
2018-07-19T01:29:46.992Z,92.54
2018-07-19T01:30:47.208Z,92.93
2018-07-19T01:31:47.054Z,92.54
2018-07-19T01:32:46.937Z,93.31
2018-07-19T01:33:46.961Z,93.31
2018-07-19T01:34:47.370Z,92.64
2018-07-19T01:35:46.893Z,93.31
2018-07-19T01:36:46.964Z,93.21
2018-07-19T01:37:46.951Z,93.12
2018-07-19T01:38:46.931Z,93.12
2018-07-19T01:39:46.926Z,92.83
2018-07-19T01:40:46.966Z,93.50
2018-07-19T01:41:48.831Z,92.25
2018-07-19T01:42:46.793Z,91.97
2018-07-19T01:43:46.772Z,92.54
2018-07-19T01:44:46.897Z,92.64
2018-07-19T01:45:46.860Z,92.45
2018-07-19T01:46:47.067Z,92.45
2018-07-19T01:47:46.830Z,93.12
2018-07-19T01:48:47.272Z,92.64
2018-07-19T01:49:46.880Z,92.07
2018-07-19T01:50:46.871Z,92.64
2018-07-19T01:51:46.646Z,92.16
2018-07-19T01:52:46.771Z,91.68
2018-07-19T01:53:46.583Z,92.07
2018-07-19T01:55:46.957Z,91.59
2018-07-19T01:56:46.577Z,91.39
2018-07-19T01:57:46.567Z,91.49
2018-07-19T01:58:46.617Z,91.02
2018-07-19T01:59:46.527Z,91.68
2018-07-19T02:00:46.529Z,91.78
2018-07-19T02:01:46.754Z,92.25
2018-07-19T02:02:46.394Z,92.07
2018-07-19T02:03:46.305Z,92.16
2018-07-19T02:04:46.338Z,91.20
2018-07-19T02:05:46.275Z,91.11
2018-07-19T02:06:46.358Z,91.59
2018-07-19T02:07:46.669Z,91.30
2018-07-19T02:08:46.286Z,91.39
2018-07-19T02:09:46.211Z,91.30
2018-07-19T02:10:46.252Z,91.49
2018-07-19T02:11:46.243Z,92.35
2018-07-19T02:12:46.274Z,91.68
2018-07-19T02:13:46.608Z,91.11
2018-07-19T02:14:46.158Z,91.39
2018-07-19T02:15:46.228Z,91.68
2018-07-19T02:16:46.286Z,91.49
2018-07-19T02:17:46.083Z,91.64
2018-07-19T02:18:46.134Z,90.73
2018-07-19T02:19:48.251Z,91.49
2018-07-19T02:20:47.484Z,91.02
2018-07-19T02:21:47.505Z,91.39
2018-07-19T02:22:46.067Z,91.35
2018-07-19T02:23:46.057Z,91.74
2018-07-19T02:24:46.033Z,91.35
2018-07-19T02:25:46.371Z,91.16
2018-07-19T02:26:46.016Z,91.45
2018-07-19T02:27:45.999Z,92.11
2018-07-19T02:28:47.464Z,91.35
2018-07-19T02:30:47.713Z,91.83
2018-07-19T02:31:47.094Z,91.35
2018-07-19T02:32:47.388Z,91.64
2018-07-19T02:33:47.440Z,91.16
2018-07-19T02:34:47.227Z,91.54
2018-07-19T02:35:45.891Z,91.25
2018-07-19T02:36:45.849Z,90.97
2018-07-19T02:37:46.198Z,90.49
2018-07-19T02:38:45.849Z,90.59
2018-07-19T02:39:45.803Z,90.45
2018-07-19T02:40:45.783Z,90.01
2018-07-19T02:42:45.749Z,89.87
2018-07-19T02:43:45.789Z,89.11
2018-07-19T02:44:46.120Z,88.73
2018-07-19T02:45:45.758Z,88.92
2018-07-19T02:46:45.724Z,88.73
2018-07-19T02:47:45.736Z,88.25
2018-07-19T02:48:45.701Z,88.39
2018-07-19T02:49:45.702Z,88.44
2018-07-19T02:50:45.670Z,89.20
2018-07-19T02:51:45.998Z,89.01
2018-07-19T02:52:45.638Z,88.87
2018-07-19T02:53:45.632Z,88.58
2018-07-19T02:54:45.619Z,88.68
2018-07-19T02:55:45.539Z,89.15
2018-07-19T02:56:45.606Z,89.01
2018-07-19T02:57:45.593Z,89.78
2018-07-19T02:58:45.907Z,89.30
2018-07-19T02:59:45.502Z,89.15
2018-07-19T03:00:45.521Z,89.15
2018-07-19T03:01:45.555Z,88.73
2018-07-19T03:02:45.497Z,89.25
2018-07-19T03:03:45.412Z,89.15
2018-07-19T03:04:45.579Z,90.30
2018-07-19T03:05:45.823Z,89.39
2018-07-19T03:06:45.388Z,89.63
2018-07-19T03:07:45.499Z,89.68
2018-07-19T03:08:45.367Z,89.59
2018-07-19T03:09:45.361Z,89.20
2018-07-19T03:10:45.331Z,89.01
2018-07-19T03:11:45.312Z,89.34
2018-07-19T03:12:45.640Z,89.39
2018-07-19T03:14:45.295Z,89.25
2018-07-19T03:15:45.211Z,89.53
2018-07-19T03:16:45.318Z,89.68
2018-07-19T03:17:45.268Z,89.59
2018-07-19T03:18:45.238Z,90.20
2018-07-19T03:19:45.486Z,89.49
2018-07-19T03:20:45.121Z,89.34
2018-07-19T03:21:45.105Z,89.82
2018-07-19T03:22:45.096Z,89.97
2018-07-19T03:23:45.068Z,90.73
2018-07-19T03:24:45.008Z,90.83
2018-07-19T03:25:44.993Z,90.83
2018-07-19T03:26:45.494Z,89.97
2018-07-19T03:27:45.343Z,90.06
2018-07-19T03:28:45.150Z,89.97
2018-07-19T03:29:45.146Z,90.64
2018-07-19T03:30:45.100Z,89.78
2018-07-19T03:31:45.025Z,90.64
2018-07-19T03:32:45.471Z,89.97
2018-07-19T03:33:44.969Z,90.06
2018-07-19T03:34:45.039Z,90.54
2018-07-19T03:35:44.931Z,91.02
2018-07-19T03:36:44.905Z,91.30
2018-07-19T03:37:44.901Z,91.40
2018-07-19T03:39:45.210Z,91.30
2018-07-19T03:40:45.368Z,91.30
2018-07-19T03:41:45.035Z,91.21
2018-07-19T03:42:44.813Z,91.50
2018-07-19T03:43:44.691Z,91.02
2018-07-19T03:44:44.872Z,91.40
2018-07-19T03:45:45.027Z,90.45
2018-07-19T03:46:44.719Z,90.64
2018-07-19T03:47:44.786Z,90.73
2018-07-19T03:48:44.779Z,90.92
2018-07-19T03:49:44.649Z,91.02
2018-07-19T03:50:44.737Z,91.11
2018-07-19T03:52:45.250Z,91.07
2018-07-19T03:53:44.675Z,90.16
2018-07-19T03:54:44.648Z,89.83
2018-07-19T03:55:44.606Z,90.54
2018-07-19T03:56:44.601Z,90.31
2018-07-19T03:58:44.951Z,90.69
2018-07-19T03:59:44.546Z,90.25
2018-07-19T04:00:44.500Z,90.69
2018-07-19T04:01:44.584Z,90.16
2018-07-19T04:02:45.695Z,89.11
2018-07-19T04:03:44.733Z,89.87
2018-07-19T04:04:44.773Z,89.30
2018-07-19T04:05:44.471Z,89.39
2018-07-19T04:06:44.568Z,88.92
2018-07-19T04:07:44.415Z,89.20
2018-07-19T04:08:44.385Z,89.11
2018-07-19T04:09:44.398Z,89.01
2018-07-19T04:10:44.404Z,89.30
2018-07-19T04:11:44.686Z,89.49
2018-07-19T04:12:44.337Z,89.30
2018-07-19T04:13:44.417Z,89.68
2018-07-19T04:14:44.348Z,90.16
2018-07-19T04:15:44.282Z,90.45
2018-07-19T04:16:44.308Z,90.54
2018-07-19T04:17:44.204Z,90.45
2018-07-19T04:18:44.558Z,90.83
2018-07-19T04:19:44.226Z,90.83
2018-07-19T04:20:44.283Z,90.64
2018-07-19T04:21:44.177Z,90.73
2018-07-19T04:22:44.228Z,90.83
2018-07-19T04:23:44.157Z,90.88
2018-07-19T04:24:44.184Z,91.16
2018-07-19T04:25:44.685Z,91.64
2018-07-19T04:26:44.178Z,91.64
2018-07-19T04:27:44.098Z,91.40
2018-07-19T04:28:44.135Z,91.25
2018-07-19T04:29:44.126Z,91.64
2018-07-19T04:30:44.162Z,92.21
2018-07-19T04:31:44.108Z,92.50
2018-07-19T04:32:44.442Z,93.45
2018-07-19T04:33:44.006Z,93.93
2018-07-19T04:34:44.034Z,94.22
2018-07-19T04:35:43.971Z,95.12
2018-07-19T04:36:44.022Z,95.03
2018-07-19T04:37:43.887Z,95.03
2018-07-19T04:38:44.094Z,95.22
2018-07-19T04:39:44.332Z,94.93
2018-07-19T04:40:43.911Z,96.18
2018-07-19T04:41:43.875Z,96.18
2018-07-19T04:42:43.901Z,97.52
2018-07-19T04:43:43.826Z,97.13
2018-07-19T04:44:43.827Z,97.61
2018-07-19T04:45:43.798Z,98.47
2018-07-19T04:46:44.192Z,98.66
2018-07-19T04:47:43.811Z,98.38
2018-07-19T04:48:43.836Z,98.75
2018-07-19T04:49:43.710Z,98.66
2018-07-19T04:50:43.672Z,99.81
2018-07-19T04:51:43.696Z,99.99
2018-07-19T04:52:43.634Z,99.99
2018-07-19T04:53:43.882Z,99.99
2018-07-19T04:54:43.697Z,99.99
2018-07-19T04:55:43.593Z,99.99
2018-07-19T04:56:43.560Z,99.86
2018-07-19T04:57:43.543Z,99.96
2018-07-19T04:58:43.893Z,99.99
2018-07-19T04:59:43.824Z,99.99
2018-07-19T05:00:43.495Z,99.99
2018-07-19T05:01:43.501Z,99.99
2018-07-19T05:02:43.471Z,99.99
2018-07-19T05:03:43.445Z,99.99
2018-07-19T05:04:43.456Z,99.99
2018-07-19T05:05:43.839Z,99.99
2018-07-19T05:06:43.405Z,99.99
2018-07-19T05:07:43.780Z,99.99
2018-07-19T05:08:44.166Z,99.99
2018-07-19T05:09:43.426Z,99.99
2018-07-19T05:10:43.844Z,99.99
2018-07-19T05:11:43.860Z,99.99
2018-07-19T05:12:43.456Z,99.99
2018-07-19T05:13:43.319Z,99.99
2018-07-19T05:14:43.315Z,99.99
2018-07-19T05:15:43.338Z,99.99
2018-07-19T05:16:43.380Z,99.99
2018-07-19T05:17:43.702Z,99.99
2018-07-19T05:18:43.241Z,99.99
2018-07-19T05:19:43.258Z,99.99
2018-07-19T05:20:43.184Z,99.99
2018-07-19T05:21:43.227Z,99.99
2018-07-19T05:22:43.348Z,99.99
2018-07-19T05:23:43.499Z,99.99
2018-07-19T05:24:43.151Z,99.99
2018-07-19T05:25:43.170Z,99.99
2018-07-19T05:26:43.105Z,99.99
2018-07-19T05:27:43.395Z,99.99
2018-07-19T05:28:43.182Z,99.99
2018-07-19T05:29:43.507Z,99.99
2018-07-19T05:30:43.291Z,99.99
2018-07-19T05:31:43.050Z,99.99
2018-07-19T05:32:43.042Z,99.99
2018-07-19T05:33:43.006Z,99.99
2018-07-19T05:34:43.049Z,99.99
2018-07-19T05:35:43.328Z,99.99
2018-07-19T05:36:42.999Z,99.99
2018-07-19T05:37:42.935Z,99.99
2018-07-19T05:38:42.912Z,99.99
2018-07-19T05:39:42.997Z,99.99
2018-07-19T05:40:42.900Z,99.99
2018-07-19T05:41:42.936Z,99.99
2018-07-19T05:42:43.229Z,99.99
2018-07-19T05:43:42.854Z,99.99
2018-07-19T05:44:42.825Z,99.99
2018-07-19T05:45:42.823Z,99.99
2018-07-19T05:46:42.799Z,99.99
2018-07-19T05:47:42.793Z,99.99
2018-07-19T05:48:42.840Z,99.99
2018-07-19T05:49:43.154Z,99.99
2018-07-19T05:50:42.763Z,99.99
2018-07-19T05:51:42.747Z,99.99
2018-07-19T05:52:42.686Z,99.99
2018-07-19T05:53:42.726Z,99.99
2018-07-19T05:54:42.723Z,99.99
2018-07-19T05:55:43.016Z,99.99
2018-07-19T05:56:42.685Z,99.99
2018-07-19T05:57:42.575Z,99.99
2018-07-19T05:58:42.615Z,99.99
2018-07-19T05:59:42.601Z,99.99
2018-07-19T06:00:42.609Z,99.99
2018-07-19T06:01:42.612Z,99.99
2018-07-19T06:02:42.852Z,99.99
2018-07-19T06:03:42.500Z,99.99
2018-07-19T06:04:42.531Z,99.99
2018-07-19T06:05:42.460Z,99.99
2018-07-19T06:06:42.429Z,99.99
